Flight Track Log - Related Links

Times and Time Zones

All times are in EDT time to prevent confusion due to time zone crossing. See the PSC478 flight status page for this flight to view local times or setup timezone preferences in your user account.

Time Position Orientation Groundspeed Altitude Reporting Facility
EDT Latitude Longitude Course Direction KTS MPH feet Rate Location/Type
Wed 08:23:00 PM 46.7667 -71.4500 270° West 140 161 2,900  Level Montreal Center
Wed 08:24:00 PM 46.7333 -71.4833 214° Southwest 150 173 4,300 1,600 Climbing Montreal Center
Wed 08:25:00 PM 46.6833 -71.5167 205° Southwest 160 184 6,100 1,700 Climbing Montreal Center
Wed 08:26:00 PM 46.5430 -71.7254 221° Southwest  Level FlightAware Approximate
Wed 08:26:00 PM 46.6833 -71.5667 270° West 160 184 7,700  Level Montreal Center
Wed 08:27:00 PM 46.5005 -71.7786 221° Southwest  Level FlightAware Approximate
Wed 08:27:00 PM 46.6333 -71.6167 214° Southwest 160 184 9,500  Level Montreal Center
Wed 08:28:00 PM 46.6000 -71.6500 214° Southwest 160 184 11,000 1,600 Climbing Montreal Center
Wed 08:29:00 PM 46.5667 -71.7000 226° Southwest 170 196 12,700 1,600 Climbing Montreal Center
Wed 08:30:00 PM 46.5333 -71.7500 226° Southwest 170 196 14,200 1,400 Climbing Montreal Center
Wed 08:31:00 PM 46.5000 -71.7667 199° South 170 196 15,500 900 Climbing Montreal Center
Wed 08:32:00 PM 46.4500 -71.8500 229° Southwest 190 219 16,000 250 Climbing Montreal Center
Wed 08:33:00 PM 46.4000 -71.9000 215° Southwest 220 253 16,000  Level Montreal Center
Wed 08:34:00 PM 46.3500 -71.9500 215° Southwest 230 265 16,000  Level Montreal Center
Wed 08:35:00 PM 46.3167 -72.0333 240° Southwest 240 276 16,000  Level Montreal Center
Wed 08:36:00 PM 46.2667 -72.0833 215° Southwest 240 276 16,000  Level Montreal Center
Wed 08:37:00 PM 46.2167 -72.1667 229° Southwest 240 276 16,000  Level Montreal Center
Wed 08:38:00 PM 46.1667 -72.2167 215° Southwest 240 276 16,000  Level Montreal Center
Wed 08:39:00 PM 46.1167 -72.2833 223° Southwest 240 276 16,000 -500 Level Montreal Center
Wed 08:40:00 PM 46.0500 -72.3500 215° Southwest 250 288 15,000 -1,250 Descending Montreal Center
Wed 08:41:00 PM 46.0000 -72.4167 223° Southwest 270 311 13,500 -1,500 Descending Montreal Center
Wed 08:42:00 PM 45.9333 -72.5000 221° Southwest 270 311 12,000 -1,500 Descending Montreal Center
Wed 08:43:00 PM 45.8833 -72.5667 223° Southwest 270 311 10,500 -1,500 Descending Montreal Center
Wed 08:44:00 PM 45.8333 -72.6167 215° Southwest 260 299 9,000 -1,450 Descending Montreal Center
Wed 08:45:00 PM 45.7833 -72.7000 229° Southwest 260 299 7,600 -1,250 Descending Montreal Center
Wed 08:46:00 PM 45.7333 -72.7667 223° Southwest 250 288 6,500 -1,150 Descending Montreal Center
Wed 08:47:00 PM 45.7333 -72.8667 270° West 250 288 5,300 -1,250 Descending Montreal Center
Wed 08:48:00 PM 45.7167 -72.9667 257° West 240 276 4,000 -1,150 Descending Montreal Center
Wed 08:49:00 PM 45.7000 -73.0667 257° West 240 276 3,000 -500 Descending Montreal Center
Wed 08:50:00 PM 45.6833 -73.1333 250° West 210 242 3,000  Level Montreal Center
Wed 08:51:00 PM 45.6333 -73.1833 215° Southwest 200 230 3,000 -100 Level Montreal Center
Wed 08:52:00 PM 45.6167 -73.2667 254° West 200 230 2,800 -500 Descending Montreal Center
Wed 08:53:00 PM 45.5833 -73.2833 199° South 140 161 2,000 -650 Descending Montreal Center
Wed 08:54:00 PM 45.5667 -73.3333 245° Southwest 100 115 1,500 -600 Descending Montreal Center
Wed 08:55:00 PM 45.5500 -73.3667 234° Southwest 100 115 800 -600 Descending Montreal Center
Wed 08:56:00 PM 45.5333 -73.3833 215° Southwest 110 127 300 -500 Descending Montreal Center

Login

Don't have an account? Register now (free) for customized features, flight alerts, and more!